sensor_id;sensor_type;location;lat;lon;timestamp;temperature;humidity
17208;DHT22;8720;48.488;9.202;2023-08-06T00:01:12;18.00;77.10
17208;DHT22;8720;48.488;9.202;2023-08-06T00:03:39;17.90;77.10
17208;DHT22;8720;48.488;9.202;2023-08-06T00:06:06;17.90;77.90
17208;DHT22;8720;48.488;9.202;2023-08-06T00:08:35;17.90;77.20
17208;DHT22;8720;48.488;9.202;2023-08-06T00:11:02;17.80;76.60
17208;DHT22;8720;48.488;9.202;2023-08-06T00:13:29;17.80;76.60
17208;DHT22;8720;48.488;9.202;2023-08-06T00:16:08;17.70;76.30
17208;DHT22;8720;48.488;9.202;2023-08-06T00:18:36;17.70;75.00
17208;DHT22;8720;48.488;9.202;2023-08-06T00:21:04;17.70;75.90
17208;DHT22;8720;48.488;9.202;2023-08-06T00:23:32;17.60;75.90
17208;DHT22;8720;48.488;9.202;2023-08-06T00:26:00;17.60;76.00
17208;DHT22;8720;48.488;9.202;2023-08-06T00:28:27;17.50;75.40
17208;DHT22;8720;48.488;9.202;2023-08-06T00:30:55;17.50;75.70
17208;DHT22;8720;48.488;9.202;2023-08-06T00:33:23;17.40;75.50
17208;DHT22;8720;48.488;9.202;2023-08-06T00:35:51;17.40;75.60
17208;DHT22;8720;48.488;9.202;2023-08-06T00:38:18;17.30;75.60
17208;DHT22;8720;48.488;9.202;2023-08-06T00:40:45;17.30;75.80
17208;DHT22;8720;48.488;9.202;2023-08-06T00:43:14;17.30;75.80
17208;DHT22;8720;48.488;9.202;2023-08-06T00:45:41;17.20;75.40
17208;DHT22;8720;48.488;9.202;2023-08-06T00:48:10;17.10;75.50
17208;DHT22;8720;48.488;9.202;2023-08-06T00:50:37;17.10;75.10
17208;DHT22;8720;48.488;9.202;2023-08-06T00:53:05;17.10;75.00
17208;DHT22;8720;48.488;9.202;2023-08-06T00:55:33;17.00;74.70
17208;DHT22;8720;48.488;9.202;2023-08-06T00:58:01;17.00;74.60
17208;DHT22;8720;48.488;9.202;2023-08-06T01:00:30;16.90;74.70
17208;DHT22;8720;48.488;9.202;2023-08-06T01:02:58;16.90;74.20
17208;DHT22;8720;48.488;9.202;2023-08-06T01:05:25;16.80;74.60
17208;DHT22;8720;48.488;9.202;2023-08-06T01:08:05;16.80;74.50
17208;DHT22;8720;48.488;9.202;2023-08-06T01:10:51;16.80;73.50
17208;DHT22;8720;48.488;9.202;2023-08-06T01:13:33;16.70;73.30
17208;DHT22;8720;48.488;9.202;2023-08-06T01:16:10;16.70;73.20
17208;DHT22;8720;48.488;9.202;2023-08-06T01:18:38;16.60;73.20
17208;DHT22;8720;48.488;9.202;2023-08-06T01:21:08;16.60;73.60
17208;DHT22;8720;48.488;9.202;2023-08-06T01:23:36;16.60;73.10
17208;DHT22;8720;48.488;9.202;2023-08-06T01:26:12;16.50;73.40
17208;DHT22;8720;48.488;9.202;2023-08-06T01:28:52;16.50;71.90
17208;DHT22;8720;48.488;9.202;2023-08-06T01:31:27;16.50;72.40
17208;DHT22;8720;48.488;9.202;2023-08-06T01:33:59;16.40;72.40
17208;DHT22;8720;48.488;9.202;2023-08-06T01:36:30;16.40;72.80
17208;DHT22;8720;48.488;9.202;2023-08-06T01:38:59;16.40;72.70
17208;DHT22;8720;48.488;9.202;2023-08-06T01:41:27;16.40;73.30
17208;DHT22;8720;48.488;9.202;2023-08-06T01:43:54;16.30;73.40
17208;DHT22;8720;48.488;9.202;2023-08-06T01:46:21;16.30;73.20
17208;DHT22;8720;48.488;9.202;2023-08-06T01:48:49;16.30;73.20
17208;DHT22;8720;48.488;9.202;2023-08-06T01:51:16;16.20;73.30
17208;DHT22;8720;48.488;9.202;2023-08-06T01:53:45;16.20;73.30
17208;DHT22;8720;48.488;9.202;2023-08-06T01:56:12;16.20;72.70
17208;DHT22;8720;48.488;9.202;2023-08-06T01:58:40;16.20;73.20
17208;DHT22;8720;48.488;9.202;2023-08-06T02:03:44;16.10;73.40
17208;DHT22;8720;48.488;9.202;2023-08-06T02:06:11;16.10;73.20
17208;DHT22;8720;48.488;9.202;2023-08-06T02:08:38;16.10;73.30
17208;DHT22;8720;48.488;9.202;2023-08-06T02:11:08;16.00;73.40
17208;DHT22;8720;48.488;9.202;2023-08-06T02:13:35;16.00;73.00
17208;DHT22;8720;48.488;9.202;2023-08-06T02:16:02;16.00;73.30
17208;DHT22;8720;48.488;9.202;2023-08-06T02:18:30;15.90;73.30
17208;DHT22;8720;48.488;9.202;2023-08-06T02:20:57;15.90;74.20
17208;DHT22;8720;48.488;9.202;2023-08-06T02:23:26;15.90;73.60
17208;DHT22;8720;48.488;9.202;2023-08-06T02:26:00;15.80;73.60
17208;DHT22;8720;48.488;9.202;2023-08-06T02:28:31;15.80;73.40
17208;DHT22;8720;48.488;9.202;2023-08-06T02:30:59;15.80;74.00
17208;DHT22;8720;48.488;9.202;2023-08-06T02:33:28;15.70;74.10
17208;DHT22;8720;48.488;9.202;2023-08-06T02:36:02;15.70;74.10
17208;DHT22;8720;48.488;9.202;2023-08-06T02:38:31;15.70;73.30
17208;DHT22;8720;48.488;9.202;2023-08-06T02:40:58;15.70;74.00
17208;DHT22;8720;48.488;9.202;2023-08-06T02:43:26;15.60;74.00
17208;DHT22;8720;48.488;9.202;2023-08-06T02:45:58;15.60;73.90
17208;DHT22;8720;48.488;9.202;2023-08-06T02:48:26;15.60;73.10
17208;DHT22;8720;48.488;9.202;2023-08-06T02:50:57;15.60;74.10
17208;DHT22;8720;48.488;9.202;2023-08-06T02:53:27;15.60;73.70
17208;DHT22;8720;48.488;9.202;2023-08-06T02:55:54;15.60;74.60
17208;DHT22;8720;48.488;9.202;2023-08-06T02:58:28;15.50;74.70
17208;DHT22;8720;48.488;9.202;2023-08-06T03:01:19;15.50;75.00
17208;DHT22;8720;48.488;9.202;2023-08-06T03:03:54;15.60;74.70
17208;DHT22;8720;48.488;9.202;2023-08-06T03:06:29;15.60;76.00
17208;DHT22;8720;48.488;9.202;2023-08-06T03:08:58;15.60;75.60
17208;DHT22;8720;48.488;9.202;2023-08-06T03:11:26;15.60;75.80
17208;DHT22;8720;48.488;9.202;2023-08-06T03:14:01;15.70;75.80
17208;DHT22;8720;48.488;9.202;2023-08-06T03:16:31;15.70;75.50
17208;DHT22;8720;48.488;9.202;2023-08-06T03:18:59;15.70;75.10
17208;DHT22;8720;48.488;9.202;2023-08-06T03:21:27;15.80;75.60
17208;DHT22;8720;48.488;9.202;2023-08-06T03:23:56;15.80;75.50
17208;DHT22;8720;48.488;9.202;2023-08-06T03:26:26;15.80;75.50
17208;DHT22;8720;48.488;9.202;2023-08-06T03:28:54;15.90;75.50
17208;DHT22;8720;48.488;9.202;2023-08-06T03:31:21;15.90;75.70
17208;DHT22;8720;48.488;9.202;2023-08-06T03:33:50;16.00;75.70
17208;DHT22;8720;48.488;9.202;2023-08-06T03:36:23;16.00;75.30
17208;DHT22;8720;48.488;9.202;2023-08-06T03:38:51;16.00;75.60
17208;DHT22;8720;48.488;9.202;2023-08-06T03:41:18;16.10;75.70
17208;DHT22;8720;48.488;9.202;2023-08-06T03:43:46;16.10;75.70
17208;DHT22;8720;48.488;9.202;2023-08-06T03:46:20;16.20;75.60
17208;DHT22;8720;48.488;9.202;2023-08-06T03:48:47;16.20;75.50
17208;DHT22;8720;48.488;9.202;2023-08-06T03:51:16;16.30;75.80
17208;DHT22;8720;48.488;9.202;2023-08-06T03:53:45;16.30;75.10
17208;DHT22;8720;48.488;9.202;2023-08-06T03:56:13;16.40;75.50
17208;DHT22;8720;48.488;9.202;2023-08-06T03:58:40;16.40;75.40
17208;DHT22;8720;48.488;9.202;2023-08-06T04:01:07;16.50;75.50
17208;DHT22;8720;48.488;9.202;2023-08-06T04:03:41;16.50;75.60
17208;DHT22;8720;48.488;9.202;2023-08-06T04:06:08;16.60;76.10
17208;DHT22;8720;48.488;9.202;2023-08-06T04:08:37;16.60;76.30
17208;DHT22;8720;48.488;9.202;2023-08-06T04:11:05;16.60;76.20
17208;DHT22;8720;48.488;9.202;2023-08-06T04:13:32;16.70;76.90
17208;DHT22;8720;48.488;9.202;2023-08-06T04:16:01;16.60;76.60
17208;DHT22;8720;48.488;9.202;2023-08-06T04:18:30;16.60;76.40
17208;DHT22;8720;48.488;9.202;2023-08-06T04:20:57;16.60;77.50
17208;DHT22;8720;48.488;9.202;2023-08-06T04:23:25;16.60;76.90
17208;DHT22;8720;48.488;9.202;2023-08-06T04:25:58;16.60;77.20
17208;DHT22;8720;48.488;9.202;2023-08-06T04:28:30;16.60;77.30
17208;DHT22;8720;48.488;9.202;2023-08-06T04:30:59;16.50;77.50
17208;DHT22;8720;48.488;9.202;2023-08-06T04:33:30;16.50;77.80
17208;DHT22;8720;48.488;9.202;2023-08-06T04:36:01;16.50;77.80
17208;DHT22;8720;48.488;9.202;2023-08-06T04:38:28;16.50;78.50
17208;DHT22;8720;48.488;9.202;2023-08-06T04:40:58;16.50;78.90
17208;DHT22;8720;48.488;9.202;2023-08-06T04:43:25;16.50;78.70
17208;DHT22;8720;48.488;9.202;2023-08-06T04:45:53;16.40;79.40
17208;DHT22;8720;48.488;9.202;2023-08-06T04:48:21;16.40;79.50
17208;DHT22;8720;48.488;9.202;2023-08-06T04:50:49;16.40;79.00
17208;DHT22;8720;48.488;9.202;2023-08-06T04:53:17;16.40;77.90
17208;DHT22;8720;48.488;9.202;2023-08-06T04:55:44;16.50;77.50
17208;DHT22;8720;48.488;9.202;2023-08-06T04:58:13;16.50;77.30
17208;DHT22;8720;48.488;9.202;2023-08-06T05:00:40;16.50;76.70
17208;DHT22;8720;48.488;9.202;2023-08-06T05:03:08;16.50;77.10
17208;DHT22;8720;48.488;9.202;2023-08-06T05:05:35;16.50;76.90
17208;DHT22;8720;48.488;9.202;2023-08-06T05:08:03;16.50;77.50
17208;DHT22;8720;48.488;9.202;2023-08-06T05:10:30;16.50;77.50
17208;DHT22;8720;48.488;9.202;2023-08-06T05:12:57;16.50;76.80
17208;DHT22;8720;48.488;9.202;2023-08-06T05:15:26;16.50;76.70
17208;DHT22;8720;48.488;9.202;2023-08-06T05:17:53;16.50;76.30
17208;DHT22;8720;48.488;9.202;2023-08-06T05:20:24;16.60;77.70
17208;DHT22;8720;48.488;9.202;2023-08-06T05:22:51;16.60;79.00
17208;DHT22;8720;48.488;9.202;2023-08-06T05:25:20;16.70;80.60
17208;DHT22;8720;48.488;9.202;2023-08-06T05:27:47;16.90;82.30
17208;DHT22;8720;48.488;9.202;2023-08-06T05:30:14;17.10;82.00
17208;DHT22;8720;48.488;9.202;2023-08-06T05:32:43;17.30;80.50
17208;DHT22;8720;48.488;9.202;2023-08-06T05:35:10;17.50;78.50
17208;DHT22;8720;48.488;9.202;2023-08-06T05:37:37;17.60;77.80
17208;DHT22;8720;48.488;9.202;2023-08-06T05:40:06;17.70;76.20
17208;DHT22;8720;48.488;9.202;2023-08-06T05:42:33;17.80;76.20
17208;DHT22;8720;48.488;9.202;2023-08-06T05:45:01;17.90;75.90
17208;DHT22;8720;48.488;9.202;2023-08-06T05:47:28;18.00;75.30
17208;DHT22;8720;48.488;9.202;2023-08-06T05:49:57;18.10;74.40
17208;DHT22;8720;48.488;9.202;2023-08-06T05:52:24;18.10;73.60
17208;DHT22;8720;48.488;9.202;2023-08-06T05:54:51;18.10;75.00
17208;DHT22;8720;48.488;9.202;2023-08-06T05:57:19;18.30;74.80
17208;DHT22;8720;48.488;9.202;2023-08-06T05:59:46;18.40;73.30
17208;DHT22;8720;48.488;9.202;2023-08-06T06:02:13;18.40;72.30
17208;DHT22;8720;48.488;9.202;2023-08-06T06:04:41;18.40;71.90
17208;DHT22;8720;48.488;9.202;2023-08-06T06:07:09;18.40;70.70
17208;DHT22;8720;48.488;9.202;2023-08-06T06:09:36;18.40;69.70
17208;DHT22;8720;48.488;9.202;2023-08-06T06:12:06;18.40;70.00
17208;DHT22;8720;48.488;9.202;2023-08-06T06:14:33;18.40;69.80
17208;DHT22;8720;48.488;9.202;2023-08-06T06:17:00;18.30;70.20
17208;DHT22;8720;48.488;9.202;2023-08-06T06:19:28;18.30;69.80
17208;DHT22;8720;48.488;9.202;2023-08-06T06:21:55;18.20;69.80
17208;DHT22;8720;48.488;9.202;2023-08-06T06:24:25;18.10;70.00
17208;DHT22;8720;48.488;9.202;2023-08-06T06:26:52;18.10;70.10
17208;DHT22;8720;48.488;9.202;2023-08-06T06:29:19;18.10;71.60
17208;DHT22;8720;48.488;9.202;2023-08-06T06:31:46;18.10;72.30
17208;DHT22;8720;48.488;9.202;2023-08-06T06:34:13;18.10;72.50
17208;DHT22;8720;48.488;9.202;2023-08-06T06:36:41;18.20;72.80
17208;DHT22;8720;48.488;9.202;2023-08-06T06:39:08;18.20;72.60
17208;DHT22;8720;48.488;9.202;2023-08-06T06:41:37;18.20;71.70
17208;DHT22;8720;48.488;9.202;2023-08-06T06:44:13;18.20;70.90
17208;DHT22;8720;48.488;9.202;2023-08-06T06:46:40;18.30;71.20
17208;DHT22;8720;48.488;9.202;2023-08-06T06:49:08;18.30;71.00
17208;DHT22;8720;48.488;9.202;2023-08-06T06:51:35;18.30;70.70
17208;DHT22;8720;48.488;9.202;2023-08-06T06:54:02;18.30;70.70
17208;DHT22;8720;48.488;9.202;2023-08-06T06:56:29;18.30;71.00
17208;DHT22;8720;48.488;9.202;2023-08-06T06:58:58;18.30;71.00
17208;DHT22;8720;48.488;9.202;2023-08-06T07:01:25;18.30;70.70
17208;DHT22;8720;48.488;9.202;2023-08-06T07:03:53;18.40;72.00
17208;DHT22;8720;48.488;9.202;2023-08-06T07:06:20;18.40;70.60
17208;DHT22;8720;48.488;9.202;2023-08-06T07:08:47;18.40;70.40
17208;DHT22;8720;48.488;9.202;2023-08-06T07:11:14;18.40;70.40
17208;DHT22;8720;48.488;9.202;2023-08-06T07:13:42;18.40;70.70
17208;DHT22;8720;48.488;9.202;2023-08-06T07:16:10;18.40;71.40
17208;DHT22;8720;48.488;9.202;2023-08-06T07:18:38;18.40;71.10
17208;DHT22;8720;48.488;9.202;2023-08-06T07:21:05;18.50;71.80
17208;DHT22;8720;48.488;9.202;2023-08-06T07:23:32;18.50;71.60
17208;DHT22;8720;48.488;9.202;2023-08-06T07:25:59;18.60;71.50
17208;DHT22;8720;48.488;9.202;2023-08-06T07:28:27;18.60;70.70
17208;DHT22;8720;48.488;9.202;2023-08-06T07:30:54;18.60;70.70
17208;DHT22;8720;48.488;9.202;2023-08-06T07:33:22;18.60;71.30
17208;DHT22;8720;48.488;9.202;2023-08-06T07:35:50;18.50;69.60
17208;DHT22;8720;48.488;9.202;2023-08-06T07:38:17;18.50;70.20
17208;DHT22;8720;48.488;9.202;2023-08-06T07:40:45;18.40;70.00
17208;DHT22;8720;48.488;9.202;2023-08-06T07:43:12;18.30;69.90
17208;DHT22;8720;48.488;9.202;2023-08-06T07:45:39;18.30;69.90
17208;DHT22;8720;48.488;9.202;2023-08-06T07:48:06;18.20;69.80
17208;DHT22;8720;48.488;9.202;2023-08-06T07:50:35;18.20;70.40
17208;DHT22;8720;48.488;9.202;2023-08-06T07:53:03;18.10;70.00
17208;DHT22;8720;48.488;9.202;2023-08-06T07:55:30;18.10;70.80
17208;DHT22;8720;48.488;9.202;2023-08-06T07:57:57;18.10;70.70
17208;DHT22;8720;48.488;9.202;2023-08-06T08:00:25;18.10;71.20
17208;DHT22;8720;48.488;9.202;2023-08-06T08:02:52;18.10;70.80
17208;DHT22;8720;48.488;9.202;2023-08-06T08:05:22;18.10;71.10
17208;DHT22;8720;48.488;9.202;2023-08-06T08:07:51;18.10;71.20
17208;DHT22;8720;48.488;9.202;2023-08-06T08:10:18;18.10;70.50
17208;DHT22;8720;48.488;9.202;2023-08-06T08:12:45;18.10;71.60
17208;DHT22;8720;48.488;9.202;2023-08-06T08:15:13;18.10;71.00
17208;DHT22;8720;48.488;9.202;2023-08-06T08:17:40;18.10;70.90
17208;DHT22;8720;48.488;9.202;2023-08-06T08:20:08;18.20;72.00
17208;DHT22;8720;48.488;9.202;2023-08-06T08:22:36;18.20;71.60
17208;DHT22;8720;48.488;9.202;2023-08-06T08:25:05;18.20;71.70
17208;DHT22;8720;48.488;9.202;2023-08-06T08:27:32;18.20;70.50
17208;DHT22;8720;48.488;9.202;2023-08-06T08:30:00;18.20;71.20
17208;DHT22;8720;48.488;9.202;2023-08-06T08:32:27;18.20;71.10
17208;DHT22;8720;48.488;9.202;2023-08-06T08:34:54;18.20;71.00
17208;DHT22;8720;48.488;9.202;2023-08-06T08:37:22;18.20;71.10
17208;DHT22;8720;48.488;9.202;2023-08-06T08:39:50;18.10;68.10
17208;DHT22;8720;48.488;9.202;2023-08-06T08:42:19;18.10;69.50
17208;DHT22;8720;48.488;9.202;2023-08-06T08:44:47;18.10;69.10
17208;DHT22;8720;48.488;9.202;2023-08-06T08:47:15;18.10;70.10
17208;DHT22;8720;48.488;9.202;2023-08-06T08:49:43;18.20;70.80
17208;DHT22;8720;48.488;9.202;2023-08-06T08:52:14;18.20;70.90
17208;DHT22;8720;48.488;9.202;2023-08-06T08:54:42;18.30;71.80
17208;DHT22;8720;48.488;9.202;2023-08-06T08:57:11;18.40;71.80
17208;DHT22;8720;48.488;9.202;2023-08-06T08:59:39;18.60;71.60
17208;DHT22;8720;48.488;9.202;2023-08-06T09:02:11;18.60;70.60
17208;DHT22;8720;48.488;9.202;2023-08-06T09:04:41;18.70;69.80
17208;DHT22;8720;48.488;9.202;2023-08-06T09:07:13;18.80;69.90
17208;DHT22;8720;48.488;9.202;2023-08-06T09:09:48;18.80;68.30
17208;DHT22;8720;48.488;9.202;2023-08-06T09:12:17;18.80;68.20
17208;DHT22;8720;48.488;9.202;2023-08-06T09:14:45;18.80;68.60
17208;DHT22;8720;48.488;9.202;2023-08-06T09:17:13;18.70;67.80
17208;DHT22;8720;48.488;9.202;2023-08-06T09:19:45;18.70;68.30
17208;DHT22;8720;48.488;9.202;2023-08-06T09:22:15;18.70;69.00
17208;DHT22;8720;48.488;9.202;2023-08-06T09:24:43;18.70;69.70
17208;DHT22;8720;48.488;9.202;2023-08-06T09:27:11;18.80;71.80
17208;DHT22;8720;48.488;9.202;2023-08-06T09:29:43;18.90;72.00
17208;DHT22;8720;48.488;9.202;2023-08-06T09:32:12;19.10;71.60
17208;DHT22;8720;48.488;9.202;2023-08-06T09:34:41;19.30;73.10
17208;DHT22;8720;48.488;9.202;2023-08-06T09:37:09;19.60;72.40
17208;DHT22;8720;48.488;9.202;2023-08-06T09:39:38;19.80;72.60
17208;DHT22;8720;48.488;9.202;2023-08-06T09:42:07;20.00;70.40
17208;DHT22;8720;48.488;9.202;2023-08-06T09:44:34;20.20;71.20
17208;DHT22;8720;48.488;9.202;2023-08-06T09:47:03;20.40;70.70
17208;DHT22;8720;48.488;9.202;2023-08-06T09:49:41;20.60;69.00
17208;DHT22;8720;48.488;9.202;2023-08-06T09:52:11;20.80;65.70
17208;DHT22;8720;48.488;9.202;2023-08-06T09:54:39;20.90;67.80
17208;DHT22;8720;48.488;9.202;2023-08-06T09:57:09;21.00;66.30
17208;DHT22;8720;48.488;9.202;2023-08-06T09:59:39;20.90;64.70
17208;DHT22;8720;48.488;9.202;2023-08-06T10:02:12;20.80;64.50
17208;DHT22;8720;48.488;9.202;2023-08-06T10:04:43;20.70;63.90
17208;DHT22;8720;48.488;9.202;2023-08-06T10:07:12;20.60;64.40
17208;DHT22;8720;48.488;9.202;2023-08-06T10:09:40;20.50;65.70
17208;DHT22;8720;48.488;9.202;2023-08-06T10:12:07;20.50;65.70
17208;DHT22;8720;48.488;9.202;2023-08-06T10:14:37;20.40;65.10
17208;DHT22;8720;48.488;9.202;2023-08-06T10:17:05;20.30;64.50
17208;DHT22;8720;48.488;9.202;2023-08-06T10:19:35;20.20;64.80
17208;DHT22;8720;48.488;9.202;2023-08-06T10:22:09;20.00;64.70
17208;DHT22;8720;48.488;9.202;2023-08-06T10:24:48;19.80;64.60
17208;DHT22;8720;48.488;9.202;2023-08-06T10:27:28;19.70;64.40
17208;DHT22;8720;48.488;9.202;2023-08-06T10:30:01;19.50;64.60
17208;DHT22;8720;48.488;9.202;2023-08-06T10:32:51;19.30;66.20
17208;DHT22;8720;48.488;9.202;2023-08-06T10:35:35;19.20;66.60
17208;DHT22;8720;48.488;9.202;2023-08-06T10:38:04;19.10;66.00
17208;DHT22;8720;48.488;9.202;2023-08-06T10:40:33;19.10;67.80
17208;DHT22;8720;48.488;9.202;2023-08-06T10:43:01;19.00;67.60
17208;DHT22;8720;48.488;9.202;2023-08-06T10:45:35;19.00;68.50
17208;DHT22;8720;48.488;9.202;2023-08-06T10:48:03;19.00;67.90
17208;DHT22;8720;48.488;9.202;2023-08-06T10:50:32;19.00;68.40
17208;DHT22;8720;48.488;9.202;2023-08-06T10:53:04;19.00;69.90
17208;DHT22;8720;48.488;9.202;2023-08-06T10:55:32;19.00;68.70
17208;DHT22;8720;48.488;9.202;2023-08-06T10:58:01;19.00;69.90
17208;DHT22;8720;48.488;9.202;2023-08-06T11:00:29;19.10;70.30
17208;DHT22;8720;48.488;9.202;2023-08-06T11:02:57;19.10;70.60
17208;DHT22;8720;48.488;9.202;2023-08-06T11:05:24;19.10;70.50
17208;DHT22;8720;48.488;9.202;2023-08-06T11:07:53;19.20;70.50
17208;DHT22;8720;48.488;9.202;2023-08-06T11:10:20;19.30;70.60
17208;DHT22;8720;48.488;9.202;2023-08-06T11:12:47;19.30;70.70
17208;DHT22;8720;48.488;9.202;2023-08-06T11:15:15;19.40;70.00
17208;DHT22;8720;48.488;9.202;2023-08-06T11:17:42;19.40;69.10
17208;DHT22;8720;48.488;9.202;2023-08-06T11:20:10;19.30;69.50
17208;DHT22;8720;48.488;9.202;2023-08-06T11:22:37;19.30;68.70
17208;DHT22;8720;48.488;9.202;2023-08-06T11:25:07;19.20;68.50
17208;DHT22;8720;48.488;9.202;2023-08-06T11:27:35;19.20;67.80
17208;DHT22;8720;48.488;9.202;2023-08-06T11:30:03;19.10;68.30
17208;DHT22;8720;48.488;9.202;2023-08-06T11:32:31;19.00;68.60
17208;DHT22;8720;48.488;9.202;2023-08-06T11:34:59;18.90;68.80
17208;DHT22;8720;48.488;9.202;2023-08-06T11:37:37;18.80;69.00
17208;DHT22;8720;48.488;9.202;2023-08-06T11:40:12;18.70;69.30
17208;DHT22;8720;48.488;9.202;2023-08-06T11:42:42;18.60;69.50
17208;DHT22;8720;48.488;9.202;2023-08-06T11:45:09;18.60;70.10
17208;DHT22;8720;48.488;9.202;2023-08-06T11:47:38;18.50;70.80
17208;DHT22;8720;48.488;9.202;2023-08-06T11:50:07;18.40;71.50
17208;DHT22;8720;48.488;9.202;2023-08-06T11:52:39;18.30;71.90
17208;DHT22;8720;48.488;9.202;2023-08-06T11:55:09;18.30;71.90
17208;DHT22;8720;48.488;9.202;2023-08-06T11:57:38;18.30;73.00
17208;DHT22;8720;48.488;9.202;2023-08-06T12:00:07;18.20;73.50
17208;DHT22;8720;48.488;9.202;2023-08-06T12:02:39;18.20;74.10
17208;DHT22;8720;48.488;9.202;2023-08-06T12:05:11;18.20;74.70
17208;DHT22;8720;48.488;9.202;2023-08-06T12:07:42;18.30;74.90
17208;DHT22;8720;48.488;9.202;2023-08-06T12:10:13;18.30;74.50
17208;DHT22;8720;48.488;9.202;2023-08-06T12:12:42;18.40;74.40
17208;DHT22;8720;48.488;9.202;2023-08-06T12:15:10;18.40;75.00
17208;DHT22;8720;48.488;9.202;2023-08-06T12:17:38;18.50;74.60
17208;DHT22;8720;48.488;9.202;2023-08-06T12:20:07;18.50;75.10
17208;DHT22;8720;48.488;9.202;2023-08-06T12:22:36;18.60;74.60
17208;DHT22;8720;48.488;9.202;2023-08-06T12:25:06;18.60;74.20
17208;DHT22;8720;48.488;9.202;2023-08-06T12:27:38;18.70;72.70
17208;DHT22;8720;48.488;9.202;2023-08-06T12:30:07;18.70;71.30
17208;DHT22;8720;48.488;9.202;2023-08-06T12:32:35;18.70;71.80
17208;DHT22;8720;48.488;9.202;2023-08-06T12:35:03;18.70;71.70
17208;DHT22;8720;48.488;9.202;2023-08-06T12:37:33;18.70;71.80
17208;DHT22;8720;48.488;9.202;2023-08-06T12:40:00;18.80;71.70
17208;DHT22;8720;48.488;9.202;2023-08-06T12:42:28;18.80;71.80
17208;DHT22;8720;48.488;9.202;2023-08-06T12:44:56;18.80;72.00
17208;DHT22;8720;48.488;9.202;2023-08-06T12:47:24;18.90;71.40
17208;DHT22;8720;48.488;9.202;2023-08-06T12:49:52;19.00;71.80
17208;DHT22;8720;48.488;9.202;2023-08-06T12:52:19;19.00;70.20
17208;DHT22;8720;48.488;9.202;2023-08-06T12:54:46;19.00;69.30
17208;DHT22;8720;48.488;9.202;2023-08-06T12:57:14;19.10;69.00
17208;DHT22;8720;48.488;9.202;2023-08-06T12:59:41;19.10;68.70
17208;DHT22;8720;48.488;9.202;2023-08-06T13:02:10;19.00;68.50
17208;DHT22;8720;48.488;9.202;2023-08-06T13:04:37;19.10;66.50
17208;DHT22;8720;48.488;9.202;2023-08-06T13:07:05;19.10;67.10
17208;DHT22;8720;48.488;9.202;2023-08-06T13:09:33;19.00;67.30
17208;DHT22;8720;48.488;9.202;2023-08-06T13:12:00;19.00;67.10
17208;DHT22;8720;48.488;9.202;2023-08-06T13:14:31;19.00;66.40
17208;DHT22;8720;48.488;9.202;2023-08-06T13:16:59;19.00;66.10
17208;DHT22;8720;48.488;9.202;2023-08-06T13:19:27;19.00;66.20
17208;DHT22;8720;48.488;9.202;2023-08-06T13:22:04;19.00;65.90
17208;DHT22;8720;48.488;9.202;2023-08-06T13:24:34;19.00;63.60
17208;DHT22;8720;48.488;9.202;2023-08-06T13:27:01;19.10;66.70
17208;DHT22;8720;48.488;9.202;2023-08-06T13:29:29;19.10;66.10
17208;DHT22;8720;48.488;9.202;2023-08-06T13:31:56;19.10;66.00
17208;DHT22;8720;48.488;9.202;2023-08-06T13:34:23;19.20;65.90
17208;DHT22;8720;48.488;9.202;2023-08-06T13:36:52;19.20;65.20
17208;DHT22;8720;48.488;9.202;2023-08-06T13:39:19;19.20;64.50
17208;DHT22;8720;48.488;9.202;2023-08-06T13:41:47;19.30;65.00
17208;DHT22;8720;48.488;9.202;2023-08-06T13:44:14;19.30;66.10
17208;DHT22;8720;48.488;9.202;2023-08-06T13:46:42;19.30;65.50
17208;DHT22;8720;48.488;9.202;2023-08-06T13:49:09;19.30;64.90
17208;DHT22;8720;48.488;9.202;2023-08-06T13:51:37;19.40;65.10
17208;DHT22;8720;48.488;9.202;2023-08-06T13:54:06;19.40;64.80
17208;DHT22;8720;48.488;9.202;2023-08-06T13:56:34;19.40;63.40
17208;DHT22;8720;48.488;9.202;2023-08-06T13:59:03;19.50;63.70
17208;DHT22;8720;48.488;9.202;2023-08-06T14:01:31;19.50;64.30
17208;DHT22;8720;48.488;9.202;2023-08-06T14:03:58;19.50;64.40
17208;DHT22;8720;48.488;9.202;2023-08-06T14:06:25;19.40;64.90
17208;DHT22;8720;48.488;9.202;2023-08-06T14:08:53;19.40;65.60
17208;DHT22;8720;48.488;9.202;2023-08-06T14:11:21;19.40;66.00
17208;DHT22;8720;48.488;9.202;2023-08-06T14:13:49;19.40;65.90
17208;DHT22;8720;48.488;9.202;2023-08-06T14:16:16;19.40;66.80
17208;DHT22;8720;48.488;9.202;2023-08-06T14:18:43;19.40;67.60
17208;DHT22;8720;48.488;9.202;2023-08-06T14:21:11;19.40;66.80
17208;DHT22;8720;48.488;9.202;2023-08-06T14:23:38;19.40;66.70
17208;DHT22;8720;48.488;9.202;2023-08-06T14:26:07;19.50;66.40
17208;DHT22;8720;48.488;9.202;2023-08-06T14:28:37;19.60;65.80
17208;DHT22;8720;48.488;9.202;2023-08-06T14:31:04;19.60;63.80
17208;DHT22;8720;48.488;9.202;2023-08-06T14:33:32;19.60;64.40
17208;DHT22;8720;48.488;9.202;2023-08-06T14:35:59;19.70;63.80
17208;DHT22;8720;48.488;9.202;2023-08-06T14:38:27;19.70;63.50
17208;DHT22;8720;48.488;9.202;2023-08-06T14:40:55;19.60;63.20
17208;DHT22;8720;48.488;9.202;2023-08-06T14:43:22;19.50;63.10
17208;DHT22;8720;48.488;9.202;2023-08-06T14:45:51;19.50;63.10
17208;DHT22;8720;48.488;9.202;2023-08-06T14:48:18;19.40;62.40
17208;DHT22;8720;48.488;9.202;2023-08-06T14:50:46;19.40;62.90
17208;DHT22;8720;48.488;9.202;2023-08-06T14:53:13;19.40;62.70
17208;DHT22;8720;48.488;9.202;2023-08-06T14:55:40;19.30;63.00
17208;DHT22;8720;48.488;9.202;2023-08-06T14:58:08;19.30;62.20
17208;DHT22;8720;48.488;9.202;2023-08-06T15:00:35;19.30;62.50
17208;DHT22;8720;48.488;9.202;2023-08-06T15:03:04;19.30;62.50
17208;DHT22;8720;48.488;9.202;2023-08-06T15:05:32;19.30;61.20
17208;DHT22;8720;48.488;9.202;2023-08-06T15:07:59;19.30;62.30
17208;DHT22;8720;48.488;9.202;2023-08-06T15:10:27;19.30;62.10
17208;DHT22;8720;48.488;9.202;2023-08-06T15:12:54;19.30;61.70
17208;DHT22;8720;48.488;9.202;2023-08-06T15:15:22;19.30;61.80
17208;DHT22;8720;48.488;9.202;2023-08-06T15:17:50;19.30;62.40
17208;DHT22;8720;48.488;9.202;2023-08-06T15:20:18;19.30;62.00
17208;DHT22;8720;48.488;9.202;2023-08-06T15:22:46;19.30;60.90
17208;DHT22;8720;48.488;9.202;2023-08-06T15:25:13;19.30;61.70
17208;DHT22;8720;48.488;9.202;2023-08-06T15:27:40;19.30;62.20
17208;DHT22;8720;48.488;9.202;2023-08-06T15:30:08;19.20;60.70
17208;DHT22;8720;48.488;9.202;2023-08-06T15:32:36;19.20;60.30
17208;DHT22;8720;48.488;9.202;2023-08-06T15:35:05;19.20;60.10
17208;DHT22;8720;48.488;9.202;2023-08-06T15:37:36;19.20;59.60
17208;DHT22;8720;48.488;9.202;2023-08-06T15:40:03;19.20;58.80
17208;DHT22;8720;48.488;9.202;2023-08-06T15:42:31;19.20;59.60
17208;DHT22;8720;48.488;9.202;2023-08-06T15:44:59;19.30;59.90
17208;DHT22;8720;48.488;9.202;2023-08-06T15:47:28;19.30;59.40
17208;DHT22;8720;48.488;9.202;2023-08-06T15:49:56;19.30;59.40
17208;DHT22;8720;48.488;9.202;2023-08-06T15:52:24;19.20;58.80
17208;DHT22;8720;48.488;9.202;2023-08-06T15:54:53;19.30;59.00
17208;DHT22;8720;48.488;9.202;2023-08-06T15:57:20;19.30;57.70